sensor_id;sensor_type;location;lat;lon;timestamp;pressure;altitude;pressure_sealevel;temperature;humidity
17072;BME280;7731;50.720;6.912;2023-12-20T00:00:41;100014.25;;;6.37;100.00
17072;BME280;7731;50.720;6.912;2023-12-20T00:03:14;99994.75;;;6.35;100.00
17072;BME280;7731;50.720;6.912;2023-12-20T00:05:47;99998.69;;;6.45;100.00
17072;BME280;7731;50.720;6.912;2023-12-20T00:08:18;99996.44;;;6.36;100.00
17072;BME280;7731;50.720;6.912;2023-12-20T00:10:48;100004.31;;;6.28;100.00
17072;BME280;7731;50.720;6.912;2023-12-20T00:13:19;99999.28;;;6.26;100.00
17072;BME280;7731;50.720;6.912;2023-12-20T00:15:49;99993.59;;;6.18;100.00
17072;BME280;7731;50.720;6.912;2023-12-20T00:18:22;99989.97;;;6.25;100.00
17072;BME280;7731;50.720;6.912;2023-12-20T00:20:52;99987.53;;;6.22;100.00
17072;BME280;7731;50.720;6.912;2023-12-20T00:23:25;99990.59;;;6.32;100.00
17072;BME280;7731;50.720;6.912;2023-12-20T00:25:55;99996.13;;;6.45;100.00
17072;BME280;7731;50.720;6.912;2023-12-20T00:28:26;100007.97;;;6.46;100.00
17072;BME280;7731;50.720;6.912;2023-12-20T00:30:56;100007.31;;;6.41;100.00
17072;BME280;7731;50.720;6.912;2023-12-20T00:33:29;99998.28;;;6.31;100.00
17072;BME280;7731;50.720;6.912;2023-12-20T00:36:00;100004.88;;;6.38;100.00
17072;BME280;7731;50.720;6.912;2023-12-20T00:38:32;100000.94;;;6.28;100.00
17072;BME280;7731;50.720;6.912;2023-12-20T00:41:03;100009.00;;;6.42;100.00
17072;BME280;7731;50.720;6.912;2023-12-20T00:43:33;100014.09;;;6.42;100.00
17072;BME280;7731;50.720;6.912;2023-12-20T00:46:04;100010.06;;;6.35;100.00
17072;BME280;7731;50.720;6.912;2023-12-20T00:48:36;100009.66;;;6.47;100.00
17072;BME280;7731;50.720;6.912;2023-12-20T00:51:09;100008.19;;;6.40;100.00
17072;BME280;7731;50.720;6.912;2023-12-20T00:53:39;100012.38;;;6.42;100.00
17072;BME280;7731;50.720;6.912;2023-12-20T00:56:10;100005.69;;;6.64;100.00
17072;BME280;7731;50.720;6.912;2023-12-20T00:58:41;100003.78;;;6.69;100.00
17072;BME280;7731;50.720;6.912;2023-12-20T01:01:11;100001.91;;;6.74;100.00
17072;BME280;7731;50.720;6.912;2023-12-20T01:03:44;100008.78;;;6.72;100.00
17072;BME280;7731;50.720;6.912;2023-12-20T01:06:14;100014.56;;;6.77;100.00
17072;BME280;7731;50.720;6.912;2023-12-20T01:08:45;100024.66;;;6.56;100.00
17072;BME280;7731;50.720;6.912;2023-12-20T01:11:15;100023.50;;;6.40;100.00
17072;BME280;7731;50.720;6.912;2023-12-20T01:13:45;100022.63;;;6.41;100.00
17072;BME280;7731;50.720;6.912;2023-12-20T01:16:16;100025.28;;;6.38;100.00
17072;BME280;7731;50.720;6.912;2023-12-20T01:18:49;100027.56;;;6.46;100.00
17072;BME280;7731;50.720;6.912;2023-12-20T01:21:19;100029.50;;;6.39;100.00
17072;BME280;7731;50.720;6.912;2023-12-20T01:23:49;100025.69;;;6.51;100.00
17072;BME280;7731;50.720;6.912;2023-12-20T01:26:19;100025.38;;;6.60;100.00
17072;BME280;7731;50.720;6.912;2023-12-20T01:28:50;100033.28;;;6.52;100.00
17072;BME280;7731;50.720;6.912;2023-12-20T01:31:20;100028.50;;;6.43;100.00
17072;BME280;7731;50.720;6.912;2023-12-20T01:33:53;100028.59;;;6.40;100.00
17072;BME280;7731;50.720;6.912;2023-12-20T01:36:23;100033.41;;;6.49;100.00
17072;BME280;7731;50.720;6.912;2023-12-20T01:38:54;100034.63;;;6.39;100.00
17072;BME280;7731;50.720;6.912;2023-12-20T01:41:24;100033.91;;;6.34;100.00
17072;BME280;7731;50.720;6.912;2023-12-20T01:43:54;100035.84;;;6.27;100.00
17072;BME280;7731;50.720;6.912;2023-12-20T01:46:26;100036.97;;;6.45;100.00
17072;BME280;7731;50.720;6.912;2023-12-20T01:48:59;100038.97;;;6.35;100.00
17072;BME280;7731;50.720;6.912;2023-12-20T01:51:30;100038.03;;;6.38;100.00
17072;BME280;7731;50.720;6.912;2023-12-20T01:54:01;100037.56;;;6.52;100.00
17072;BME280;7731;50.720;6.912;2023-12-20T01:56:32;100051.72;;;6.35;100.00
17072;BME280;7731;50.720;6.912;2023-12-20T01:59:03;100055.91;;;6.38;100.00
17072;BME280;7731;50.720;6.912;2023-12-20T02:01:35;100064.13;;;6.46;100.00
17072;BME280;7731;50.720;6.912;2023-12-20T02:04:11;100081.00;;;6.50;100.00
17072;BME280;7731;50.720;6.912;2023-12-20T02:06:46;100079.63;;;6.40;100.00
17072;BME280;7731;50.720;6.912;2023-12-20T02:09:16;100082.59;;;6.28;100.00
17072;BME280;7731;50.720;6.912;2023-12-20T02:11:47;100084.91;;;6.08;100.00
17072;BME280;7731;50.720;6.912;2023-12-20T02:14:17;100084.16;;;6.05;100.00
17072;BME280;7731;50.720;6.912;2023-12-20T02:16:48;100091.75;;;5.78;100.00
17072;BME280;7731;50.720;6.912;2023-12-20T02:19:23;100096.84;;;5.50;100.00
17072;BME280;7731;50.720;6.912;2023-12-20T02:22:11;100095.69;;;5.30;100.00
17072;BME280;7731;50.720;6.912;2023-12-20T02:24:42;100094.28;;;5.20;100.00
17072;BME280;7731;50.720;6.912;2023-12-20T02:27:12;100108.22;;;5.07;100.00
17072;BME280;7731;50.720;6.912;2023-12-20T02:29:45;100114.78;;;5.15;100.00
17072;BME280;7731;50.720;6.912;2023-12-20T02:32:20;100110.91;;;5.02;100.00
17072;BME280;7731;50.720;6.912;2023-12-20T02:34:51;100105.09;;;4.97;100.00
17072;BME280;7731;50.720;6.912;2023-12-20T02:37:25;100101.19;;;4.83;100.00
17072;BME280;7731;50.720;6.912;2023-12-20T02:39:55;100108.75;;;4.87;100.00
17072;BME280;7731;50.720;6.912;2023-12-20T02:42:25;100110.59;;;4.81;100.00
17072;BME280;7731;50.720;6.912;2023-12-20T02:44:55;100116.88;;;4.68;100.00
17072;BME280;7731;50.720;6.912;2023-12-20T02:47:26;100129.66;;;4.65;100.00
17072;BME280;7731;50.720;6.912;2023-12-20T02:49:57;100118.59;;;4.68;100.00
17072;BME280;7731;50.720;6.912;2023-12-20T02:52:30;100121.88;;;4.71;100.00
17072;BME280;7731;50.720;6.912;2023-12-20T02:55:01;100125.78;;;4.85;100.00
17072;BME280;7731;50.720;6.912;2023-12-20T02:57:31;100132.69;;;4.81;100.00
17072;BME280;7731;50.720;6.912;2023-12-20T03:00:05;100126.72;;;4.80;100.00
17072;BME280;7731;50.720;6.912;2023-12-20T03:02:36;100126.97;;;5.04;100.00
17072;BME280;7731;50.720;6.912;2023-12-20T03:05:08;100127.28;;;4.93;100.00
17072;BME280;7731;50.720;6.912;2023-12-20T03:07:42;100114.66;;;5.51;100.00
17072;BME280;7731;50.720;6.912;2023-12-20T03:10:14;100136.03;;;5.14;100.00
17072;BME280;7731;50.720;6.912;2023-12-20T03:12:54;100123.28;;;5.14;100.00
17072;BME280;7731;50.720;6.912;2023-12-20T03:15:24;100121.69;;;5.12;100.00
17072;BME280;7731;50.720;6.912;2023-12-20T03:17:56;100123.72;;;5.30;100.00
17072;BME280;7731;50.720;6.912;2023-12-20T03:20:26;100123.47;;;5.40;100.00
17072;BME280;7731;50.720;6.912;2023-12-20T03:23:01;100119.91;;;5.75;100.00
17072;BME280;7731;50.720;6.912;2023-12-20T03:25:32;100124.97;;;6.05;100.00
17072;BME280;7731;50.720;6.912;2023-12-20T03:28:05;100119.66;;;6.11;100.00
17072;BME280;7731;50.720;6.912;2023-12-20T03:30:35;100107.34;;;5.69;100.00
17072;BME280;7731;50.720;6.912;2023-12-20T03:33:06;100110.09;;;5.89;100.00
17072;BME280;7731;50.720;6.912;2023-12-20T03:35:36;100093.72;;;5.98;100.00
17072;BME280;7731;50.720;6.912;2023-12-20T03:38:09;100108.88;;;6.30;100.00
17072;BME280;7731;50.720;6.912;2023-12-20T03:40:40;100114.75;;;6.05;100.00
17072;BME280;7731;50.720;6.912;2023-12-20T03:43:10;100111.53;;;6.00;100.00
17072;BME280;7731;50.720;6.912;2023-12-20T03:45:41;100112.81;;;6.13;100.00
17072;BME280;7731;50.720;6.912;2023-12-20T03:48:12;100109.63;;;6.33;100.00
17072;BME280;7731;50.720;6.912;2023-12-20T03:50:42;100106.13;;;6.09;100.00
17072;BME280;7731;50.720;6.912;2023-12-20T03:53:18;100101.97;;;6.06;100.00
17072;BME280;7731;50.720;6.912;2023-12-20T03:55:48;100111.63;;;6.23;100.00
17072;BME280;7731;50.720;6.912;2023-12-20T03:58:18;100110.47;;;5.77;100.00
17072;BME280;7731;50.720;6.912;2023-12-20T04:00:49;100121.03;;;5.65;100.00
17072;BME280;7731;50.720;6.912;2023-12-20T04:03:19;100118.16;;;6.05;100.00
17072;BME280;7731;50.720;6.912;2023-12-20T04:05:49;100117.34;;;5.75;100.00
17072;BME280;7731;50.720;6.912;2023-12-20T04:08:23;100119.03;;;5.76;100.00
17072;BME280;7731;50.720;6.912;2023-12-20T04:10:53;100124.13;;;5.76;100.00
17072;BME280;7731;50.720;6.912;2023-12-20T04:13:23;100126.94;;;5.97;100.00
17072;BME280;7731;50.720;6.912;2023-12-20T04:15:54;100121.41;;;6.11;100.00
17072;BME280;7731;50.720;6.912;2023-12-20T04:18:24;100123.31;;;6.04;100.00
17072;BME280;7731;50.720;6.912;2023-12-20T04:20:55;100122.81;;;5.91;100.00
17072;BME280;7731;50.720;6.912;2023-12-20T04:23:28;100122.84;;;6.19;100.00
17072;BME280;7731;50.720;6.912;2023-12-20T04:25:58;100110.09;;;5.89;100.00
17072;BME280;7731;50.720;6.912;2023-12-20T04:28:29;100102.34;;;5.93;100.00
17072;BME280;7731;50.720;6.912;2023-12-20T04:30:59;100101.69;;;5.87;100.00
17072;BME280;7731;50.720;6.912;2023-12-20T04:33:30;100116.19;;;5.85;100.00
17072;BME280;7731;50.720;6.912;2023-12-20T04:36:00;100116.25;;;6.12;100.00
17072;BME280;7731;50.720;6.912;2023-12-20T04:38:34;100118.84;;;6.11;100.00
17072;BME280;7731;50.720;6.912;2023-12-20T04:41:07;100124.69;;;6.14;100.00
17072;BME280;7731;50.720;6.912;2023-12-20T04:43:37;100120.31;;;5.89;100.00
17072;BME280;7731;50.720;6.912;2023-12-20T04:46:12;100116.16;;;6.15;100.00
17072;BME280;7731;50.720;6.912;2023-12-20T04:48:42;100122.56;;;6.00;100.00
17072;BME280;7731;50.720;6.912;2023-12-20T04:51:13;100121.16;;;5.90;100.00
17072;BME280;7731;50.720;6.912;2023-12-20T04:53:45;100117.75;;;5.89;100.00
17072;BME280;7731;50.720;6.912;2023-12-20T04:56:16;100129.28;;;6.03;100.00
17072;BME280;7731;50.720;6.912;2023-12-20T04:58:46;100134.69;;;5.92;100.00
17072;BME280;7731;50.720;6.912;2023-12-20T05:01:17;100137.81;;;5.72;100.00
17072;BME280;7731;50.720;6.912;2023-12-20T05:03:48;100135.97;;;5.77;100.00
17072;BME280;7731;50.720;6.912;2023-12-20T05:06:18;100146.47;;;5.96;100.00
17072;BME280;7731;50.720;6.912;2023-12-20T05:08:51;100141.75;;;6.12;100.00
17072;BME280;7731;50.720;6.912;2023-12-20T05:11:21;100142.22;;;5.97;100.00
17072;BME280;7731;50.720;6.912;2023-12-20T05:13:52;100145.19;;;6.11;100.00
17072;BME280;7731;50.720;6.912;2023-12-20T05:16:22;100140.25;;;6.05;100.00
17072;BME280;7731;50.720;6.912;2023-12-20T05:18:52;100131.25;;;6.21;100.00
17072;BME280;7731;50.720;6.912;2023-12-20T05:21:25;100137.25;;;6.20;100.00
17072;BME280;7731;50.720;6.912;2023-12-20T05:23:58;100142.47;;;5.87;100.00
17072;BME280;7731;50.720;6.912;2023-12-20T05:26:29;100140.22;;;6.06;100.00
17072;BME280;7731;50.720;6.912;2023-12-20T05:29:03;100130.88;;;5.77;100.00
17072;BME280;7731;50.720;6.912;2023-12-20T05:31:33;100134.09;;;5.84;100.00
17072;BME280;7731;50.720;6.912;2023-12-20T05:34:04;100138.53;;;6.07;100.00
17072;BME280;7731;50.720;6.912;2023-12-20T05:36:35;100132.47;;;6.10;100.00
17072;BME280;7731;50.720;6.912;2023-12-20T05:39:09;100137.81;;;5.72;100.00
17072;BME280;7731;50.720;6.912;2023-12-20T05:41:39;100131.66;;;6.09;100.00
17072;BME280;7731;50.720;6.912;2023-12-20T05:44:09;100128.22;;;6.10;100.00
17072;BME280;7731;50.720;6.912;2023-12-20T05:46:40;100125.72;;;5.79;100.00
17072;BME280;7731;50.720;6.912;2023-12-20T05:49:10;100134.78;;;5.89;100.00
17072;BME280;7731;50.720;6.912;2023-12-20T05:51:41;100135.47;;;5.66;100.00
17072;BME280;7731;50.720;6.912;2023-12-20T05:54:16;100140.31;;;5.45;100.00
17072;BME280;7731;50.720;6.912;2023-12-20T05:56:46;100136.41;;;5.62;100.00
17072;BME280;7731;50.720;6.912;2023-12-20T05:59:17;100129.09;;;5.81;100.00
17072;BME280;7731;50.720;6.912;2023-12-20T06:01:48;100131.69;;;5.79;100.00
17072;BME280;7731;50.720;6.912;2023-12-20T06:04:18;100119.38;;;5.64;100.00
17072;BME280;7731;50.720;6.912;2023-12-20T06:06:53;100123.94;;;5.82;100.00
17072;BME280;7731;50.720;6.912;2023-12-20T06:09:27;100130.88;;;5.77;100.00
17072;BME280;7731;50.720;6.912;2023-12-20T06:11:58;100134.13;;;5.82;100.00
17072;BME280;7731;50.720;6.912;2023-12-20T06:14:29;100140.25;;;5.77;100.00
17072;BME280;7731;50.720;6.912;2023-12-20T06:17:00;100134.31;;;5.76;100.00
17072;BME280;7731;50.720;6.912;2023-12-20T06:19:32;100142.84;;;5.75;100.00
17072;BME280;7731;50.720;6.912;2023-12-20T06:22:03;100141.16;;;5.74;100.00
17072;BME280;7731;50.720;6.912;2023-12-20T06:24:36;100144.91;;;5.62;100.00
17072;BME280;7731;50.720;6.912;2023-12-20T06:27:06;100140.88;;;5.83;100.00
17072;BME280;7731;50.720;6.912;2023-12-20T06:29:39;100144.78;;;5.95;100.00
17072;BME280;7731;50.720;6.912;2023-12-20T06:32:13;100149.06;;;5.95;100.00
17072;BME280;7731;50.720;6.912;2023-12-20T06:34:44;100143.53;;;6.10;100.00
17072;BME280;7731;50.720;6.912;2023-12-20T06:37:14;100143.97;;;5.95;100.00
17072;BME280;7731;50.720;6.912;2023-12-20T06:39:48;100148.00;;;6.02;100.00
17072;BME280;7731;50.720;6.912;2023-12-20T06:42:19;100141.59;;;5.88;100.00
17072;BME280;7731;50.720;6.912;2023-12-20T06:44:49;100143.91;;;5.98;100.00
17072;BME280;7731;50.720;6.912;2023-12-20T06:47:19;100146.06;;;5.80;100.00
17072;BME280;7731;50.720;6.912;2023-12-20T06:49:49;100152.75;;;5.84;100.00
17072;BME280;7731;50.720;6.912;2023-12-20T06:52:20;100147.25;;;5.70;100.00
17072;BME280;7731;50.720;6.912;2023-12-20T06:54:53;100153.91;;;6.04;100.00
17072;BME280;7731;50.720;6.912;2023-12-20T06:57:23;100146.03;;;6.12;100.00
17072;BME280;7731;50.720;6.912;2023-12-20T06:59:53;100142.91;;;6.02;100.00
17072;BME280;7731;50.720;6.912;2023-12-20T07:02:25;100147.22;;;6.00;100.00
17072;BME280;7731;50.720;6.912;2023-12-20T07:04:57;100145.88;;;5.86;100.00
17072;BME280;7731;50.720;6.912;2023-12-20T07:07:28;100154.25;;;5.92;100.00
17072;BME280;7731;50.720;6.912;2023-12-20T07:10:00;100158.16;;;5.73;100.00
17072;BME280;7731;50.720;6.912;2023-12-20T07:12:31;100155.34;;;5.83;100.00
17072;BME280;7731;50.720;6.912;2023-12-20T07:15:01;100162.97;;;5.84;100.00
17072;BME280;7731;50.720;6.912;2023-12-20T07:17:33;100152.56;;;5.62;100.00
17072;BME280;7731;50.720;6.912;2023-12-20T07:20:08;100149.81;;;5.98;100.00
17072;BME280;7731;50.720;6.912;2023-12-20T07:22:39;100151.25;;;5.77;100.00
17072;BME280;7731;50.720;6.912;2023-12-20T07:25:14;100155.13;;;5.90;100.00
17072;BME280;7731;50.720;6.912;2023-12-20T07:27:44;100159.03;;;5.72;100.00
17072;BME280;7731;50.720;6.912;2023-12-20T07:30:16;100172.72;;;6.00;100.00
17072;BME280;7731;50.720;6.912;2023-12-20T07:32:48;100174.06;;;5.82;100.00
17072;BME280;7731;50.720;6.912;2023-12-20T07:35:20;100163.97;;;5.79;100.00
17072;BME280;7731;50.720;6.912;2023-12-20T07:37:50;100166.56;;;5.77;100.00
17072;BME280;7731;50.720;6.912;2023-12-20T07:40:23;100171.00;;;5.70;100.00
17072;BME280;7731;50.720;6.912;2023-12-20T07:42:54;100167.78;;;5.65;100.00
17072;BME280;7731;50.720;6.912;2023-12-20T07:45:25;100167.97;;;5.87;100.00
17072;BME280;7731;50.720;6.912;2023-12-20T07:47:55;100174.25;;;5.76;100.00
17072;BME280;7731;50.720;6.912;2023-12-20T07:50:26;100166.78;;;5.69;100.00
17072;BME280;7731;50.720;6.912;2023-12-20T07:52:56;100170.38;;;5.92;100.00
17072;BME280;7731;50.720;6.912;2023-12-20T07:55:29;100175.16;;;5.75;100.00
17072;BME280;7731;50.720;6.912;2023-12-20T07:58:00;100156.72;;;5.95;100.00
17072;BME280;7731;50.720;6.912;2023-12-20T08:00:35;100151.41;;;6.02;100.00
17072;BME280;7731;50.720;6.912;2023-12-20T08:03:05;100162.81;;;5.89;100.00
17072;BME280;7731;50.720;6.912;2023-12-20T08:05:38;100167.69;;;5.98;100.00
17072;BME280;7731;50.720;6.912;2023-12-20T08:08:08;100163.03;;;5.81;100.00
17072;BME280;7731;50.720;6.912;2023-12-20T08:10:41;100163.75;;;6.16;100.00
17072;BME280;7731;50.720;6.912;2023-12-20T08:13:11;100164.84;;;6.07;100.00
17072;BME280;7731;50.720;6.912;2023-12-20T08:15:42;100170.09;;;6.03;100.00
17072;BME280;7731;50.720;6.912;2023-12-20T08:18:12;100174.31;;;6.04;100.00
17072;BME280;7731;50.720;6.912;2023-12-20T08:20:42;100176.97;;;6.01;100.00
17072;BME280;7731;50.720;6.912;2023-12-20T08:23:13;100176.69;;;6.37;100.00
17072;BME280;7731;50.720;6.912;2023-12-20T08:25:46;100190.03;;;5.88;100.00
17072;BME280;7731;50.720;6.912;2023-12-20T08:28:16;100173.56;;;6.29;100.00
17072;BME280;7731;50.720;6.912;2023-12-20T08:30:47;100161.00;;;6.49;100.00
17072;BME280;7731;50.720;6.912;2023-12-20T08:33:21;100165.72;;;6.35;100.00
17072;BME280;7731;50.720;6.912;2023-12-20T08:35:54;100167.41;;;6.36;100.00
17072;BME280;7731;50.720;6.912;2023-12-20T08:38:24;100158.16;;;6.58;100.00
17072;BME280;7731;50.720;6.912;2023-12-20T08:40:57;100151.59;;;6.51;100.00
17072;BME280;7731;50.720;6.912;2023-12-20T08:43:28;100146.69;;;6.45;100.00
17072;BME280;7731;50.720;6.912;2023-12-20T08:46:00;100149.34;;;6.14;100.00
17072;BME280;7731;50.720;6.912;2023-12-20T08:48:30;100155.38;;;6.11;100.00
17072;BME280;7731;50.720;6.912;2023-12-20T08:51:01;100152.97;;;6.35;100.00
17072;BME280;7731;50.720;6.912;2023-12-20T08:53:31;100152.41;;;6.25;100.00
17072;BME280;7731;50.720;6.912;2023-12-20T08:56:05;100153.63;;;6.40;100.00
17072;BME280;7731;50.720;6.912;2023-12-20T08:58:35;100149.31;;;6.69;100.00
17072;BME280;7731;50.720;6.912;2023-12-20T09:01:05;100158.19;;;6.84;100.00
17072;BME280;7731;50.720;6.912;2023-12-20T09:03:36;100166.41;;;6.92;100.00
17072;BME280;7731;50.720;6.912;2023-12-20T09:06:06;100160.09;;;7.27;100.00
17072;BME280;7731;50.720;6.912;2023-12-20T09:08:37;100160.16;;;7.49;100.00
17072;BME280;7731;50.720;6.912;2023-12-20T09:11:10;100168.84;;;7.20;100.00
17072;BME280;7731;50.720;6.912;2023-12-20T09:13:42;100162.06;;;7.90;100.00
17072;BME280;7731;50.720;6.912;2023-12-20T09:16:12;100167.50;;;8.49;100.00
17072;BME280;7731;50.720;6.912;2023-12-20T09:18:43;100171.47;;;8.34;100.00
17072;BME280;7731;50.720;6.912;2023-12-20T09:21:13;100171.94;;;7.99;100.00
17072;BME280;7731;50.720;6.912;2023-12-20T09:23:44;100168.56;;;9.06;100.00
17072;BME280;7731;50.720;6.912;2023-12-20T09:26:19;100167.63;;;8.46;100.00
17072;BME280;7731;50.720;6.912;2023-12-20T09:28:49;100165.31;;;7.94;100.00
17072;BME280;7731;50.720;6.912;2023-12-20T09:31:19;100159.56;;;8.11;100.00
17072;BME280;7731;50.720;6.912;2023-12-20T09:33:50;100159.31;;;7.49;100.00
17072;BME280;7731;50.720;6.912;2023-12-20T09:36:20;100155.63;;;7.80;100.00
17072;BME280;7731;50.720;6.912;2023-12-20T09:38:50;100167.03;;;7.47;100.00
17072;BME280;7731;50.720;6.912;2023-12-20T09:41:28;100160.84;;;7.29;100.00
17072;BME280;7731;50.720;6.912;2023-12-20T09:44:03;100165.63;;;7.15;100.00
17072;BME280;7731;50.720;6.912;2023-12-20T09:46:37;100166.25;;;7.22;100.00
17072;BME280;7731;50.720;6.912;2023-12-20T09:49:09;100160.69;;;6.85;100.00
17072;BME280;7731;50.720;6.912;2023-12-20T09:51:41;100158.91;;;6.87;100.00
17072;BME280;7731;50.720;6.912;2023-12-20T09:54:15;100157.72;;;6.97;100.00
17072;BME280;7731;50.720;6.912;2023-12-20T09:56:48;100165.41;;;6.71;100.00
17072;BME280;7731;50.720;6.912;2023-12-20T09:59:19;100159.25;;;6.51;100.00
17072;BME280;7731;50.720;6.912;2023-12-20T10:01:51;100163.75;;;6.70;100.00
17072;BME280;7731;50.720;6.912;2023-12-20T10:04:25;100158.03;;;6.88;100.00
17072;BME280;7731;50.720;6.912;2023-12-20T10:07:03;100156.03;;;6.71;100.00
17072;BME280;7731;50.720;6.912;2023-12-20T10:09:34;100155.91;;;6.49;100.00
17072;BME280;7731;50.720;6.912;2023-12-20T10:12:08;100144.88;;;6.49;100.00
17072;BME280;7731;50.720;6.912;2023-12-20T10:14:39;100152.38;;;6.53;100.00
17072;BME280;7731;50.720;6.912;2023-12-20T10:17:09;100154.06;;;6.79;100.00
17072;BME280;7731;50.720;6.912;2023-12-20T10:19:39;100147.38;;;6.75;100.00
17072;BME280;7731;50.720;6.912;2023-12-20T10:22:11;100136.56;;;6.69;100.00
17072;BME280;7731;50.720;6.912;2023-12-20T10:24:41;100126.75;;;6.82;100.00
17072;BME280;7731;50.720;6.912;2023-12-20T10:27:18;100134.72;;;6.72;100.00
17072;BME280;7731;50.720;6.912;2023-12-20T10:29:49;100133.31;;;6.89;100.00
17072;BME280;7731;50.720;6.912;2023-12-20T10:32:26;100127.59;;;6.82;100.00
17072;BME280;7731;50.720;6.912;2023-12-20T10:34:57;100122.59;;;6.79;100.00
17072;BME280;7731;50.720;6.912;2023-12-20T10:37:28;100124.88;;;6.61;100.00
17072;BME280;7731;50.720;6.912;2023-12-20T10:40:03;100116.03;;;6.72;100.00
17072;BME280;7731;50.720;6.912;2023-12-20T10:42:37;100111.84;;;6.94;100.00
17072;BME280;7731;50.720;6.912;2023-12-20T10:45:10;100108.28;;;6.98;100.00
17072;BME280;7731;50.720;6.912;2023-12-20T10:47:41;100106.53;;;6.75;100.00
17072;BME280;7731;50.720;6.912;2023-12-20T10:50:16;100096.41;;;6.72;100.00
17072;BME280;7731;50.720;6.912;2023-12-20T10:52:47;100093.41;;;6.61;100.00
17072;BME280;7731;50.720;6.912;2023-12-20T10:55:23;100096.13;;;6.56;100.00
17072;BME280;7731;50.720;6.912;2023-12-20T10:58:02;100095.41;;;6.53;100.00
17072;BME280;7731;50.720;6.912;2023-12-20T11:00:40;100102.59;;;6.67;100.00
17072;BME280;7731;50.720;6.912;2023-12-20T11:03:16;100099.63;;;7.03;100.00
17072;BME280;7731;50.720;6.912;2023-12-20T11:05:56;100087.19;;;7.17;100.00
17072;BME280;7731;50.720;6.912;2023-12-20T11:08:39;100093.50;;;7.08;100.00
17072;BME280;7731;50.720;6.912;2023-12-20T11:11:31;100096.53;;;6.94;100.00
17072;BME280;7731;50.720;6.912;2023-12-20T11:14:14;100098.09;;;7.22;100.00
17072;BME280;7731;50.720;6.912;2023-12-20T11:16:46;100097.94;;;7.27;100.00
17072;BME280;7731;50.720;6.912;2023-12-20T11:19:22;100106.75;;;6.94;100.00
17072;BME280;7731;50.720;6.912;2023-12-20T11:21:52;100102.63;;;6.90;100.00
17072;BME280;7731;50.720;6.912;2023-12-20T11:24:25;100097.69;;;6.86;100.00
17072;BME280;7731;50.720;6.912;2023-12-20T11:26:56;100093.06;;;6.95;100.00
17072;BME280;7731;50.720;6.912;2023-12-20T11:29:34;100104.63;;;7.06;100.00
17072;BME280;7731;50.720;6.912;2023-12-20T11:32:28;100110.22;;;6.92;100.00
17072;BME280;7731;50.720;6.912;2023-12-20T11:35:01;100119.63;;;7.15;100.00
17072;BME280;7731;50.720;6.912;2023-12-20T11:37:46;100113.44;;;7.22;100.00
17072;BME280;7731;50.720;6.912;2023-12-20T11:40:18;100120.03;;;6.79;100.00
17072;BME280;7731;50.720;6.912;2023-12-20T11:42:51;100119.75;;;6.61;100.00
17072;BME280;7731;50.720;6.912;2023-12-20T11:45:27;100105.38;;;6.84;100.00
17072;BME280;7731;50.720;6.912;2023-12-20T11:47:58;100095.78;;;7.16;100.00
17072;BME280;7731;50.720;6.912;2023-12-20T11:50:29;100108.94;;;7.05;100.00
17072;BME280;7731;50.720;6.912;2023-12-20T11:53:00;100098.97;;;7.21;100.00
17072;BME280;7731;50.720;6.912;2023-12-20T11:55:31;100098.31;;;7.16;100.00
17072;BME280;7731;50.720;6.912;2023-12-20T11:58:02;100091.69;;;7.10;100.00
17072;BME280;7731;50.720;6.912;2023-12-20T12:00:35;100090.09;;;7.31;100.00
17072;BME280;7731;50.720;6.912;2023-12-20T12:03:05;100091.84;;;7.29;100.00
17072;BME280;7731;50.720;6.912;2023-12-20T12:05:36;100079.31;;;7.47;100.00
17072;BME280;7731;50.720;6.912;2023-12-20T12:08:07;100077.97;;;7.37;100.00
17072;BME280;7731;50.720;6.912;2023-12-20T12:10:37;100073.00;;;7.10;100.00
17072;BME280;7731;50.720;6.912;2023-12-20T12:13:08;100079.41;;;7.44;100.00
17072;BME280;7731;50.720;6.912;2023-12-20T12:15:42;100083.41;;;7.51;100.00
17072;BME280;7731;50.720;6.912;2023-12-20T12:18:15;100067.56;;;7.41;100.00
17072;BME280;7731;50.720;6.912;2023-12-20T12:20:47;100064.94;;;7.21;100.00
17072;BME280;7731;50.720;6.912;2023-12-20T12:23:23;100070.44;;;7.10;100.00
17072;BME280;7731;50.720;6.912;2023-12-20T12:25:55;100063.44;;;7.15;100.00
17072;BME280;7731;50.720;6.912;2023-12-20T12:28:26;100055.66;;;7.18;100.00
17072;BME280;7731;50.720;6.912;2023-12-20T12:31:03;100047.41;;;7.33;100.00
17072;BME280;7731;50.720;6.912;2023-12-20T12:33:34;100043.97;;;7.11;100.00
17072;BME280;7731;50.720;6.912;2023-12-20T12:36:07;100039.78;;;7.10;100.00
17072;BME280;7731;50.720;6.912;2023-12-20T12:38:38;100042.53;;;7.27;100.00
17072;BME280;7731;50.720;6.912;2023-12-20T12:41:08;100033.94;;;7.06;100.00
17072;BME280;7731;50.720;6.912;2023-12-20T12:43:41;100036.03;;;7.19;100.00
17072;BME280;7731;50.720;6.912;2023-12-20T12:46:15;100036.00;;;6.96;100.00
17072;BME280;7731;50.720;6.912;2023-12-20T12:48:45;100038.59;;;7.19;100.00
17072;BME280;7731;50.720;6.912;2023-12-20T12:51:17;100045.13;;;7.04;100.00
17072;BME280;7731;50.720;6.912;2023-12-20T12:53:48;100033.22;;;7.03;100.00
17072;BME280;7731;50.720;6.912;2023-12-20T12:56:18;100039.66;;;6.89;100.00
17072;BME280;7731;50.720;6.912;2023-12-20T12:58:49;100021.34;;;7.02;100.00
17072;BME280;7731;50.720;6.912;2023-12-20T13:01:22;100030.13;;;6.94;100.00
17072;BME280;7731;50.720;6.912;2023-12-20T13:03:53;100012.44;;;7.12;100.00
17072;BME280;7731;50.720;6.912;2023-12-20T13:06:23;100016.22;;;7.02;100.00
17072;BME280;7731;50.720;6.912;2023-12-20T13:08:54;100028.66;;;6.64;100.00
17072;BME280;7731;50.720;6.912;2023-12-20T13:11:25;100016.56;;;6.92;100.00
17072;BME280;7731;50.720;6.912;2023-12-20T13:13:55;100014.50;;;6.78;100.00
17072;BME280;7731;50.720;6.912;2023-12-20T13:16:28;100013.78;;;6.75;100.00
17072;BME280;7731;50.720;6.912;2023-12-20T13:18:58;100008.25;;;6.87;100.00
17072;BME280;7731;50.720;6.912;2023-12-20T13:21:29;100003.56;;;6.75;100.00
17072;BME280;7731;50.720;6.912;2023-12-20T13:24:02;100006.91;;;6.77;100.00